createdAt,value
2022-08-28T00:01:19.321Z,101723.06
2022-08-28T00:03:47.773Z,101727.34
2022-08-28T00:06:16.408Z,101731.31
2022-08-28T00:08:46.428Z,101732.13
2022-08-28T00:11:15.422Z,101732.53
2022-08-28T00:13:44.609Z,101731.88
2022-08-28T00:16:18.433Z,101733.13
2022-08-28T00:18:47.562Z,101736.13
2022-08-28T00:21:16.449Z,101736.34
2022-08-28T00:23:45.046Z,101732.97
2022-08-28T00:26:33.707Z,101733.19
2022-08-28T00:29:06.121Z,101732.97
2022-08-28T00:31:38.359Z,101737.19
2022-08-28T00:34:08.242Z,101738.22
2022-08-28T00:36:37.980Z,101741.81
2022-08-28T00:39:07.481Z,101737.34
2022-08-28T00:41:41.203Z,101736.94
2022-08-28T00:44:16.541Z,101730.19
2022-08-28T00:46:48.474Z,101723.94
2022-08-28T00:49:19.373Z,101731.31
2022-08-28T00:52:07.598Z,101727.06
2022-08-28T00:54:59.665Z,101728.75
2022-08-28T00:57:32.488Z,101735.28
2022-08-28T01:00:01.777Z,101744.94
2022-08-28T01:02:31.780Z,101744.47
2022-08-28T01:05:00.433Z,101746.38
2022-08-28T01:07:28.980Z,101746.81
2022-08-28T01:09:58.353Z,101747.22
2022-08-28T01:12:29.942Z,101744.38
2022-08-28T01:15:01.248Z,101751.38
2022-08-28T01:17:33.100Z,101742.59
2022-08-28T01:20:07.455Z,101750.13
2022-08-28T01:22:41.523Z,101754.72
2022-08-28T01:25:18.356Z,101757.91
2022-08-28T01:27:46.912Z,101749.03
2022-08-28T01:30:19.687Z,101748.66
2022-08-28T01:32:53.752Z,101754.56
2022-08-28T01:35:32.056Z,101752.41
2022-08-28T01:38:01.182Z,101746.91
2022-08-28T01:40:43.703Z,101749.03
2022-08-28T01:43:18.505Z,101754.84
2022-08-28T01:45:52.802Z,101758.53
2022-08-28T01:48:23.817Z,101768.63
2022-08-28T01:50:52.556Z,101771.13
2022-08-28T01:53:25.913Z,101767.38
2022-08-28T01:56:04.942Z,101760.84
2022-08-28T01:58:37.538Z,101761.03
2022-08-28T02:01:16.442Z,101765.19
2022-08-28T02:03:46.057Z,101760.84
2022-08-28T02:06:15.981Z,101763.19
2022-08-28T02:08:44.766Z,101763.00
2022-08-28T02:11:13.455Z,101767.88
2022-08-28T02:13:42.292Z,101762.22
2022-08-28T02:16:12.584Z,101772.91
2022-08-28T02:18:41.262Z,101772.84
2022-08-28T02:21:10.863Z,101768.19
2022-08-28T02:23:43.321Z,101772.22
2022-08-28T02:26:13.353Z,101775.81
2022-08-28T02:28:43.163Z,101777.78
2022-08-28T02:31:12.945Z,101779.63
2022-08-28T02:33:44.619Z,101785.09
2022-08-28T02:36:15.037Z,101787.06
2022-08-28T02:38:45.462Z,101782.28
2022-08-28T02:41:13.994Z,101786.09
2022-08-28T02:43:42.614Z,101791.53
2022-08-28T02:46:11.570Z,101795.22
2022-08-28T02:48:40.954Z,101775.84
2022-08-28T02:51:13.632Z,101779.38
2022-08-28T02:53:42.948Z,101784.66
2022-08-28T02:56:11.955Z,101781.03
2022-08-28T02:58:41.394Z,101778.81
2022-08-28T03:01:12.588Z,101775.69
2022-08-28T03:03:42.216Z,101780.44
2022-08-28T03:06:12.525Z,101779.94
2022-08-28T03:08:43.627Z,101782.91
2022-08-28T03:11:12.266Z,101782.47
2022-08-28T03:13:41.832Z,101783.06
2022-08-28T03:16:10.454Z,101777.97
2022-08-28T03:18:40.218Z,101787.59
2022-08-28T03:21:09.607Z,101792.22
2022-08-28T03:23:38.864Z,101787.00
2022-08-28T03:26:14.060Z,101794.56
2022-08-28T03:28:46.015Z,101793.06
2022-08-28T03:31:18.025Z,101795.47
2022-08-28T03:33:47.765Z,101801.22
2022-08-28T03:36:21.417Z,101795.03
2022-08-28T03:38:51.830Z,101796.13
2022-08-28T03:41:23.268Z,101794.78
2022-08-28T03:43:52.819Z,101806.28
2022-08-28T03:46:25.260Z,101804.88
2022-08-28T03:48:55.517Z,101815.13
2022-08-28T03:51:29.691Z,101802.75
2022-08-28T03:53:59.939Z,101808.44
2022-08-28T03:56:30.200Z,101809.03
2022-08-28T03:59:01.235Z,101815.00
2022-08-28T04:01:30.101Z,101802.22
2022-08-28T04:03:58.617Z,101812.03
2022-08-28T04:06:28.017Z,101806.75
2022-08-28T04:09:00.163Z,101810.94
2022-08-28T04:11:29.111Z,101814.97
2022-08-28T04:13:57.910Z,101814.00
2022-08-28T04:16:27.144Z,101803.88
2022-08-28T04:18:55.637Z,101809.75
2022-08-28T04:21:26.197Z,101814.16
2022-08-28T04:23:55.563Z,101811.91
2022-08-28T04:26:26.897Z,101807.03
2022-08-28T04:28:56.344Z,101817.00
2022-08-28T04:31:31.630Z,101828.50
2022-08-28T04:34:02.683Z,101826.03
2022-08-28T04:36:33.747Z,101820.66
2022-08-28T04:39:05.965Z,101831.31
2022-08-28T04:41:37.498Z,101825.72
2022-08-28T04:44:06.732Z,101831.13
2022-08-28T04:46:35.773Z,101824.97
2022-08-28T04:49:05.915Z,101828.09
2022-08-28T04:51:36.832Z,101825.06
2022-08-28T04:54:08.004Z,101832.94
2022-08-28T04:56:37.170Z,101830.75
2022-08-28T04:59:06.754Z,101821.66
2022-08-28T05:01:36.242Z,101830.28
2022-08-28T05:04:05.068Z,101830.72
2022-08-28T05:06:33.891Z,101841.16
2022-08-28T05:09:04.489Z,101832.44
2022-08-28T05:11:35.010Z,101842.38
2022-08-28T05:14:11.559Z,101850.38
2022-08-28T05:16:50.348Z,101847.13
2022-08-28T05:19:20.594Z,101854.28
2022-08-28T05:21:49.161Z,101847.06
2022-08-28T05:24:18.523Z,101858.31
2022-08-28T05:26:47.979Z,101863.72
2022-08-28T05:29:17.640Z,101863.19
2022-08-28T05:31:46.610Z,101869.81
2022-08-28T05:34:16.763Z,101858.41
2022-08-28T05:36:45.313Z,101860.28
2022-08-28T05:39:14.266Z,101863.59
2022-08-28T05:41:45.434Z,101859.72
2022-08-28T05:44:15.973Z,101865.06
2022-08-28T05:46:47.689Z,101859.63
2022-08-28T05:49:18.318Z,101870.13
2022-08-28T05:51:47.893Z,101868.38
2022-08-28T05:54:17.476Z,101859.88
2022-08-28T05:56:46.648Z,101867.47
2022-08-28T05:59:16.098Z,101868.16
2022-08-28T06:01:47.843Z,101865.88
2022-08-28T06:04:23.301Z,101869.13
2022-08-28T06:06:52.315Z,101867.84
2022-08-28T06:09:28.800Z,101888.69
2022-08-28T06:12:00.923Z,101883.13
2022-08-28T06:14:32.470Z,101875.59
2022-08-28T06:17:02.507Z,101875.28
2022-08-28T06:19:37.245Z,101880.09
2022-08-28T06:22:09.467Z,101877.72
2022-08-28T06:24:38.299Z,101881.22
2022-08-28T06:27:06.788Z,101880.25
2022-08-28T06:29:35.345Z,101889.56
2022-08-28T06:32:06.938Z,101894.03
2022-08-28T06:34:35.540Z,101886.91
2022-08-28T06:37:04.222Z,101891.13
2022-08-28T06:39:32.668Z,101903.72
2022-08-28T06:42:01.355Z,101901.66
2022-08-28T06:44:38.113Z,101911.66
2022-08-28T06:47:06.571Z,101909.09
2022-08-28T06:49:35.700Z,101903.19
2022-08-28T06:52:04.143Z,101909.03
2022-08-28T06:54:32.590Z,101908.16
2022-08-28T06:57:01.017Z,101909.28
2022-08-28T06:59:29.696Z,101905.28
2022-08-28T07:01:58.380Z,101908.22
2022-08-28T07:04:27.647Z,101908.47
2022-08-28T07:06:56.155Z,101902.53
2022-08-28T07:09:24.645Z,101899.41
2022-08-28T07:11:53.535Z,101903.44
2022-08-28T07:14:22.007Z,101907.44
2022-08-28T07:16:50.511Z,101906.13
2022-08-28T07:19:20.462Z,101911.47
2022-08-28T07:21:49.102Z,101919.03
2022-08-28T07:24:18.283Z,101907.72
2022-08-28T07:26:47.805Z,101906.25
2022-08-28T07:29:17.518Z,101911.72
2022-08-28T07:31:51.006Z,101917.56
2022-08-28T07:34:22.580Z,101913.75
2022-08-28T07:36:58.139Z,101922.16
2022-08-28T07:39:26.670Z,101921.34
2022-08-28T07:41:55.208Z,101927.03
2022-08-28T07:44:42.545Z,101943.34
2022-08-28T07:47:11.807Z,101941.00
2022-08-28T07:49:41.457Z,101940.75
2022-08-28T07:52:12.405Z,101938.75
2022-08-28T07:54:41.034Z,101942.53
2022-08-28T07:57:10.388Z,101941.94
2022-08-28T07:59:40.761Z,101937.94
2022-08-28T08:02:11.095Z,101946.97
2022-08-28T08:04:40.290Z,101932.03
2022-08-28T08:07:09.654Z,101933.72
2022-08-28T08:09:43.310Z,101946.72
2022-08-28T08:12:13.597Z,101953.88
2022-08-28T08:14:43.529Z,101952.13
2022-08-28T08:17:12.094Z,101955.44
2022-08-28T08:19:41.017Z,101950.41
2022-08-28T08:22:09.595Z,101966.63
2022-08-28T08:24:38.165Z,101953.59
2022-08-28T08:27:06.854Z,101955.94
2022-08-28T08:29:38.193Z,101954.50
2022-08-28T08:32:10.360Z,101968.44
2022-08-28T08:34:45.897Z,101961.03
2022-08-28T08:37:14.752Z,101968.06
2022-08-28T08:39:43.391Z,101957.56
2022-08-28T08:42:23.450Z,101968.09
2022-08-28T08:44:54.435Z,101956.56
2022-08-28T08:47:41.144Z,101959.16
2022-08-28T08:50:17.333Z,101950.94
2022-08-28T08:52:55.043Z,101972.16
2022-08-28T08:55:27.108Z,101964.78
2022-08-28T08:58:11.315Z,101964.63
2022-08-28T09:00:54.898Z,101970.72
2022-08-28T09:03:44.508Z,101964.41
2022-08-28T09:06:40.792Z,101954.38
2022-08-28T09:09:17.087Z,101958.31
2022-08-28T09:11:56.522Z,101954.81
2022-08-28T09:14:53.429Z,101961.69
2022-08-28T09:17:27.836Z,101964.00
2022-08-28T09:19:56.685Z,101960.06
2022-08-28T09:22:25.212Z,101960.06
2022-08-28T09:24:54.096Z,101952.06
2022-08-28T09:27:22.519Z,101966.38
2022-08-28T09:30:07.662Z,101961.41
2022-08-28T09:32:56.276Z,101969.03
2022-08-28T09:35:33.421Z,101962.28
2022-08-28T09:38:20.552Z,101954.81
2022-08-28T09:41:08.672Z,101959.56
2022-08-28T09:43:37.668Z,101962.78
2022-08-28T09:46:30.596Z,101960.38
2022-08-28T09:49:14.241Z,101963.28
2022-08-28T09:51:42.713Z,101967.97
2022-08-28T09:54:35.798Z,101968.63
2022-08-28T09:57:04.453Z,101954.75
2022-08-28T09:59:33.156Z,101957.00
2022-08-28T10:02:20.959Z,101968.03
2022-08-28T10:05:00.474Z,101970.00
2022-08-28T10:07:49.161Z,101972.75
2022-08-28T10:10:29.770Z,101977.56
2022-08-28T10:13:14.924Z,101976.47
2022-08-28T10:15:52.361Z,101973.72
2022-08-28T10:18:34.739Z,101961.47
2022-08-28T10:21:09.624Z,101966.97
2022-08-28T10:23:48.559Z,101964.09
2022-08-28T10:26:24.662Z,101969.19
2022-08-28T10:29:10.434Z,101974.44
2022-08-28T10:32:07.957Z,101965.50
2022-08-28T10:35:02.824Z,101954.44
2022-08-28T10:37:44.757Z,101959.59
2022-08-28T10:40:35.407Z,101972.56
2022-08-28T10:43:37.222Z,101959.50
2022-08-28T10:46:13.043Z,101967.69
2022-08-28T10:48:48.781Z,101967.13
2022-08-28T10:51:34.939Z,101971.34
2022-08-28T10:54:15.595Z,101965.94
2022-08-28T10:56:55.968Z,101978.44
2022-08-28T10:59:27.903Z,101981.84
2022-08-28T11:01:56.872Z,101965.47
2022-08-28T11:04:28.505Z,101974.44
2022-08-28T11:07:02.449Z,101984.72
2022-08-28T11:09:37.803Z,101978.88
2022-08-28T11:12:19.656Z,101964.81
2022-08-28T11:14:51.262Z,101969.94
2022-08-28T11:17:22.735Z,101974.16
2022-08-28T11:19:54.351Z,101976.44
2022-08-28T11:22:25.799Z,101973.47
2022-08-28T11:25:15.471Z,101972.34
2022-08-28T11:28:17.605Z,101968.59
2022-08-28T11:30:50.064Z,101961.97
2022-08-28T11:33:39.386Z,101978.00
2022-08-28T11:36:33.918Z,101974.53
2022-08-28T11:39:17.704Z,101980.16
2022-08-28T11:42:11.244Z,101972.59
2022-08-28T11:44:45.836Z,101976.56
2022-08-28T11:47:52.916Z,101970.53
2022-08-28T11:50:25.796Z,101975.91
2022-08-28T11:53:18.273Z,101973.03
2022-08-28T11:56:02.723Z,101978.94
2022-08-28T11:58:37.080Z,101983.63
2022-08-28T12:01:05.659Z,101975.91
2022-08-28T12:03:44.686Z,101978.19
2022-08-28T12:06:13.465Z,101978.16
2022-08-28T12:08:45.010Z,101968.81
2022-08-28T12:11:41.645Z,101968.06
2022-08-28T12:14:26.352Z,101962.94
2022-08-28T12:17:00.849Z,101962.91
2022-08-28T12:19:55.504Z,101976.75
2022-08-28T12:22:39.393Z,101970.78
2022-08-28T12:25:20.619Z,101963.09
2022-08-28T12:27:49.527Z,101970.38
2022-08-28T12:30:28.906Z,101963.25
2022-08-28T12:33:32.980Z,101963.63
2022-08-28T12:36:11.336Z,101960.63
2022-08-28T12:38:40.339Z,101970.44
2022-08-28T12:41:18.457Z,101951.19
2022-08-28T12:43:57.239Z,101957.44
2022-08-28T12:46:30.996Z,101960.38
2022-08-28T12:49:02.051Z,101963.50
2022-08-28T12:51:33.639Z,101959.06
2022-08-28T12:54:05.114Z,101953.72
2022-08-28T12:56:37.000Z,101958.72
2022-08-28T12:59:27.362Z,101955.50
2022-08-28T13:02:02.749Z,101952.78
2022-08-28T13:04:35.872Z,101956.94
2022-08-28T13:07:11.545Z,101951.78
2022-08-28T13:09:48.590Z,101942.56
2022-08-28T13:12:31.987Z,101947.75
2022-08-28T13:15:51.539Z,101936.59
2022-08-28T13:18:42.570Z,101946.63
2022-08-28T13:21:34.134Z,101946.69
2022-08-28T13:24:26.138Z,101948.28
2022-08-28T13:27:13.938Z,101943.91
2022-08-28T13:30:02.587Z,101939.22
2022-08-28T13:32:34.076Z,101941.13
2022-08-28T13:35:25.716Z,101933.38
2022-08-28T13:38:00.821Z,101939.25
2022-08-28T13:43:24.192Z,101947.84
2022-08-28T13:45:53.051Z,101943.91
2022-08-28T13:48:27.038Z,101935.59
2022-08-28T13:51:05.149Z,101931.50
2022-08-28T13:53:40.168Z,101930.19
2022-08-28T13:56:09.161Z,101929.59
2022-08-28T13:58:37.720Z,101932.81
2022-08-28T14:01:06.644Z,101925.59
2022-08-28T14:03:39.089Z,101935.78
2022-08-28T14:06:14.442Z,101923.50
2022-08-28T14:08:44.658Z,101913.31
2022-08-28T14:11:14.926Z,101916.47
2022-08-28T14:13:47.304Z,101922.38
2022-08-28T14:16:25.097Z,101920.75
2022-08-28T14:18:53.964Z,101919.38
2022-08-28T14:21:24.353Z,101923.16
2022-08-28T14:23:52.899Z,101915.00
2022-08-28T14:26:21.441Z,101922.19
2022-08-28T14:28:49.894Z,101921.53
2022-08-28T14:31:18.716Z,101914.38
2022-08-28T14:33:47.427Z,101921.06
2022-08-28T14:36:18.449Z,101912.19
2022-08-28T14:38:48.760Z,101914.09
2022-08-28T14:41:17.473Z,101913.06
2022-08-28T14:43:47.921Z,101927.50
2022-08-28T14:46:34.578Z,101917.19
2022-08-28T14:49:10.637Z,101916.91
2022-08-28T14:51:41.469Z,101907.06
2022-08-28T14:54:12.957Z,101911.03
2022-08-28T14:56:43.260Z,101903.84
2022-08-28T14:59:18.421Z,101908.78
2022-08-28T15:01:51.108Z,101894.31
2022-08-28T15:04:22.746Z,101895.84
2022-08-28T15:06:55.143Z,101890.84
2022-08-28T15:09:23.932Z,101895.13
2022-08-28T15:11:53.293Z,101900.63
2022-08-28T15:14:21.978Z,101899.03
2022-08-28T15:16:50.559Z,101897.91
2022-08-28T15:19:19.418Z,101907.31
2022-08-28T15:21:54.036Z,101902.56
2022-08-28T15:24:27.972Z,101904.97
2022-08-28T15:26:57.624Z,101896.75
2022-08-28T15:29:27.696Z,101897.09
2022-08-28T15:31:57.152Z,101895.78
2022-08-28T15:34:28.230Z,101887.16
2022-08-28T15:36:57.802Z,101879.38
2022-08-28T15:39:46.317Z,101888.34
2022-08-28T15:42:15.437Z,101886.94
2022-08-28T15:44:44.306Z,101892.31
2022-08-28T15:47:14.776Z,101898.28
2022-08-28T15:49:49.856Z,101886.34
2022-08-28T15:52:19.109Z,101891.94
2022-08-28T15:54:48.699Z,101894.25
2022-08-28T15:57:17.708Z,101888.78
2022-08-28T15:59:50.458Z,101888.97
2022-08-28T16:02:24.089Z,101889.63
2022-08-28T16:04:54.574Z,101888.50
2022-08-28T16:07:23.399Z,101886.97
2022-08-28T16:09:52.366Z,101880.97
2022-08-28T16:12:21.370Z,101875.72
2022-08-28T16:14:50.297Z,101876.72
2022-08-28T16:17:18.967Z,101875.72
2022-08-28T16:19:48.645Z,101888.84
2022-08-28T16:22:17.558Z,101883.28
2022-08-28T16:24:46.332Z,101884.38
2022-08-28T16:27:15.852Z,101885.03
2022-08-28T16:29:45.452Z,101882.13
2022-08-28T16:32:13.984Z,101884.75
2022-08-28T16:34:44.637Z,101890.41
2022-08-28T16:37:14.381Z,101887.78
2022-08-28T16:39:53.675Z,101899.09
2022-08-28T16:42:23.961Z,101890.06
2022-08-28T16:44:57.398Z,101896.75
2022-08-28T16:47:31.771Z,101890.63
2022-08-28T16:50:02.514Z,101886.78
2022-08-28T16:52:31.341Z,101895.97
2022-08-28T16:54:59.958Z,101881.25
2022-08-28T16:57:29.456Z,101888.50
2022-08-28T16:59:58.094Z,101887.78
2022-08-28T17:02:27.556Z,101885.34
2022-08-28T17:05:00.272Z,101874.53
2022-08-28T17:07:28.978Z,101886.09
2022-08-28T17:09:57.541Z,101879.63
2022-08-28T17:12:26.083Z,101883.22
2022-08-28T17:14:56.376Z,101881.53
2022-08-28T17:17:24.937Z,101876.31
2022-08-28T17:19:53.354Z,101878.69
2022-08-28T17:22:31.890Z,101875.47
2022-08-28T17:25:13.575Z,101877.75
2022-08-28T17:27:42.147Z,101880.59
2022-08-28T17:30:11.333Z,101887.97
2022-08-28T17:32:40.698Z,101888.44
2022-08-28T17:35:09.211Z,101884.84
2022-08-28T17:37:39.264Z,101882.31
2022-08-28T17:40:10.639Z,101877.94
2022-08-28T17:42:39.723Z,101882.72
2022-08-28T17:45:09.661Z,101884.84
2022-08-28T17:47:38.455Z,101889.59
2022-08-28T17:50:07.815Z,101892.25
2022-08-28T17:52:36.746Z,101882.09
2022-08-28T17:55:06.318Z,101885.63
2022-08-28T17:57:34.784Z,101885.44
2022-08-28T18:00:09.026Z,101892.16
2022-08-28T18:02:39.271Z,101884.47
2022-08-28T18:05:08.707Z,101883.63
2022-08-28T18:07:37.636Z,101882.47
2022-08-28T18:10:07.041Z,101895.09
2022-08-28T18:12:35.861Z,101888.97
2022-08-28T18:15:06.103Z,101894.31
2022-08-28T18:17:36.780Z,101888.84
2022-08-28T18:20:07.973Z,101894.44
2022-08-28T18:22:38.339Z,101894.97
2022-08-28T18:25:07.954Z,101879.94
2022-08-28T18:27:36.756Z,101895.50
2022-08-28T18:30:05.906Z,101895.81
2022-08-28T18:32:34.628Z,101904.03
2022-08-28T18:35:04.692Z,101901.38
2022-08-28T18:37:33.320Z,101908.03
2022-08-28T18:40:02.001Z,101902.81
2022-08-28T18:42:30.777Z,101902.41
2022-08-28T18:44:59.755Z,101903.19
2022-08-28T18:47:28.375Z,101906.69
2022-08-28T18:49:57.283Z,101907.22
2022-08-28T18:52:26.059Z,101917.44
2022-08-28T18:54:58.536Z,101919.41
2022-08-28T18:57:29.840Z,101923.50
2022-08-28T18:59:59.267Z,101920.63
2022-08-28T19:02:27.834Z,101923.56
2022-08-28T19:04:56.486Z,101924.84
2022-08-28T19:07:24.902Z,101934.44
2022-08-28T19:09:56.992Z,101932.47
2022-08-28T19:12:25.999Z,101942.66
2022-08-28T19:14:55.908Z,101940.44
2022-08-28T19:17:25.265Z,101937.88
2022-08-28T19:19:54.381Z,101942.91
2022-08-28T19:22:23.411Z,101940.41
2022-08-28T19:24:51.852Z,101948.13
2022-08-28T19:27:20.330Z,101949.75
2022-08-28T19:29:48.751Z,101950.91
2022-08-28T19:32:17.213Z,101952.22
2022-08-28T19:34:45.691Z,101952.22
2022-08-28T19:37:16.131Z,101958.41
2022-08-28T19:39:55.949Z,101954.69
2022-08-28T19:42:25.003Z,101951.47
2022-08-28T19:44:59.827Z,101948.72
2022-08-28T19:47:28.627Z,101952.31
2022-08-28T19:50:08.368Z,101951.47
2022-08-28T19:52:37.562Z,101958.13
2022-08-28T19:55:07.687Z,101955.47
2022-08-28T19:57:36.191Z,101962.28
2022-08-28T20:00:05.345Z,101954.78
2022-08-28T20:02:33.797Z,101955.69
2022-08-28T20:05:02.759Z,101955.03
2022-08-28T20:07:31.212Z,101970.28
2022-08-28T20:10:00.830Z,101973.78
2022-08-28T20:12:29.860Z,101968.41
2022-08-28T20:15:02.771Z,101971.00
2022-08-28T20:17:32.211Z,101973.44
2022-08-28T20:20:03.030Z,101977.19
2022-08-28T20:22:32.110Z,101975.78
2022-08-28T20:25:00.830Z,101980.81
2022-08-28T20:27:29.631Z,101976.00
2022-08-28T20:29:58.502Z,101976.25
2022-08-28T20:32:40.158Z,101976.91
2022-08-28T20:35:12.315Z,101974.81
2022-08-28T20:37:44.928Z,101987.69
2022-08-28T20:40:18.552Z,101983.84
2022-08-28T20:42:47.889Z,101982.88
2022-08-28T20:45:18.427Z,101983.19
2022-08-28T20:47:46.861Z,101991.22
2022-08-28T20:50:16.102Z,101997.28
2022-08-28T20:52:44.530Z,102001.94
2022-08-28T20:55:14.866Z,101998.44
2022-08-28T20:57:43.319Z,102009.31
2022-08-28T21:00:12.806Z,102012.09
2022-08-28T21:02:41.283Z,102013.75
2022-08-28T21:05:09.827Z,102016.69
2022-08-28T21:07:38.506Z,102017.13
2022-08-28T21:10:08.073Z,102008.94
2022-08-28T21:12:38.750Z,102010.59
2022-08-28T21:15:10.859Z,102004.34
2022-08-28T21:17:40.927Z,102010.41
2022-08-28T21:20:12.734Z,102016.06
2022-08-28T21:22:41.768Z,102011.06
2022-08-28T21:25:11.294Z,102017.75
2022-08-28T21:27:40.240Z,102015.66
2022-08-28T21:30:12.297Z,102019.88
2022-08-28T21:32:40.820Z,102022.81
2022-08-28T21:35:10.984Z,102014.31
2022-08-28T21:37:41.425Z,102020.19
2022-08-28T21:40:12.634Z,102015.53
2022-08-28T21:42:41.417Z,102016.22
2022-08-28T21:45:12.388Z,102012.13
2022-08-28T21:47:42.090Z,102008.84
2022-08-28T21:50:11.917Z,102014.81
2022-08-28T21:52:40.456Z,102018.06
2022-08-28T21:55:12.057Z,102022.09
2022-08-28T21:57:40.842Z,102026.75
2022-08-28T22:00:14.863Z,102014.81
2022-08-28T22:02:44.073Z,102016.00
2022-08-28T22:05:16.137Z,102019.16
2022-08-28T22:07:45.084Z,102026.56
2022-08-28T22:10:13.996Z,102018.78
2022-08-28T22:12:42.425Z,102016.22
2022-08-28T22:15:10.959Z,102016.00
2022-08-28T22:17:39.468Z,102019.56
2022-08-28T22:20:08.622Z,102024.41
2022-08-28T22:22:55.706Z,102025.84
2022-08-28T22:25:24.210Z,102018.06
2022-08-28T22:27:52.670Z,102019.47
2022-08-28T22:30:21.447Z,102023.94
2022-08-28T22:32:50.111Z,102022.84
2022-08-28T22:35:19.571Z,102023.91
2022-08-28T22:37:48.254Z,102022.44
2022-08-28T22:40:17.032Z,102021.19
2022-08-28T22:42:46.118Z,102025.63
2022-08-28T22:45:15.759Z,102022.03
2022-08-28T22:47:44.284Z,102019.94
2022-08-28T22:50:12.714Z,102016.31
2022-08-28T22:52:43.303Z,102015.28
2022-08-28T22:55:13.202Z,102009.41
2022-08-28T22:57:41.948Z,102013.53
2022-08-28T23:00:15.665Z,102013.53
2022-08-28T23:02:44.434Z,102017.44
2022-08-28T23:05:13.901Z,102023.41
2022-08-28T23:07:42.892Z,102015.25
2022-08-28T23:10:12.359Z,102016.44
2022-08-28T23:12:40.834Z,102016.72
2022-08-28T23:15:14.414Z,102013.19
2022-08-28T23:17:43.657Z,102012.69
2022-08-28T23:20:16.925Z,102023.38
2022-08-28T23:22:46.788Z,102022.47
2022-08-28T23:25:17.987Z,102020.78
2022-08-28T23:27:47.546Z,102011.97
2022-08-28T23:30:18.506Z,102007.09
2022-08-28T23:32:47.073Z,102017.97
2022-08-28T23:35:16.241Z,102015.47
2022-08-28T23:37:48.953Z,102008.91
2022-08-28T23:40:23.043Z,102011.53
2022-08-28T23:42:52.874Z,102013.66
2022-08-28T23:45:22.101Z,102008.28
2022-08-28T23:47:51.699Z,102023.88
2022-08-28T23:50:22.036Z,102010.00
2022-08-28T23:52:50.686Z,102013.13
2022-08-28T23:55:19.995Z,102015.41
2022-08-28T23:57:48.563Z,102011.97
